createdAt,value
2022-07-30T00:00:25.248Z,73.80
2022-07-30T00:02:53.698Z,73.70
2022-07-30T00:05:21.682Z,74.10
2022-07-30T00:07:49.563Z,74.10
2022-07-30T00:10:20.552Z,74.20
2022-07-30T00:12:48.470Z,74.30
2022-07-30T00:15:16.541Z,74.80
2022-07-30T00:17:46.754Z,74.80
2022-07-30T00:20:17.413Z,75.20
2022-07-30T00:22:46.637Z,75.20
2022-07-30T00:25:14.597Z,75.80
2022-07-30T00:27:44.327Z,76.10
2022-07-30T00:30:13.356Z,75.80
2022-07-30T00:32:41.433Z,75.60
2022-07-30T00:35:10.427Z,75.70
2022-07-30T00:37:38.326Z,75.70
2022-07-30T00:40:07.791Z,75.70
2022-07-30T00:42:40.250Z,75.80
2022-07-30T00:45:11.348Z,75.80
2022-07-30T00:47:39.884Z,76.30
2022-07-30T00:50:09.808Z,76.50
2022-07-30T00:52:38.988Z,77.00
2022-07-30T00:55:08.756Z,76.90
2022-07-30T00:57:36.782Z,77.10
2022-07-30T01:00:11.484Z,77.10
2022-07-30T01:02:39.721Z,77.10
2022-07-30T01:05:09.049Z,76.80
2022-07-30T01:07:37.346Z,76.90
2022-07-30T01:10:06.615Z,76.90
2022-07-30T01:12:34.736Z,76.80
2022-07-30T01:15:05.924Z,77.30
2022-07-30T01:17:35.538Z,77.50
2022-07-30T01:20:07.312Z,77.40
2022-07-30T01:22:46.544Z,77.40
2022-07-30T01:25:20.983Z,77.60
2022-07-30T01:27:53.594Z,77.90
2022-07-30T01:30:24.264Z,78.00
2022-07-30T01:32:55.245Z,77.90
2022-07-30T01:35:24.526Z,78.00
2022-07-30T01:37:54.198Z,78.20
2022-07-30T01:40:23.550Z,78.30
2022-07-30T01:42:54.889Z,78.10
2022-07-30T01:45:24.665Z,78.20
2022-07-30T01:47:54.228Z,78.40
2022-07-30T01:50:23.750Z,78.30
2022-07-30T01:52:53.918Z,78.30
2022-07-30T01:55:31.232Z,78.20
2022-07-30T01:58:01.442Z,78.10
2022-07-30T02:00:31.737Z,77.80
2022-07-30T02:03:00.071Z,77.70
2022-07-30T02:05:31.953Z,77.60
2022-07-30T02:08:04.256Z,77.90
2022-07-30T02:10:36.808Z,78.20
2022-07-30T02:13:09.455Z,78.40
2022-07-30T02:15:43.006Z,78.50
2022-07-30T02:18:17.783Z,78.70
2022-07-30T02:20:49.435Z,79.10
2022-07-30T02:23:19.822Z,79.40
2022-07-30T02:25:51.252Z,79.50
2022-07-30T02:28:23.071Z,79.50
2022-07-30T02:30:54.510Z,79.30
2022-07-30T02:33:27.357Z,79.60
2022-07-30T02:35:56.208Z,80.00
2022-07-30T02:38:27.823Z,80.10
2022-07-30T02:40:58.703Z,80.30
2022-07-30T02:43:29.496Z,80.60
2022-07-30T02:46:05.289Z,80.80
2022-07-30T02:48:35.594Z,80.30
2022-07-30T02:51:05.107Z,80.30
2022-07-30T02:53:34.678Z,80.40
2022-07-30T02:56:03.986Z,80.40
2022-07-30T02:58:35.360Z,80.50
2022-07-30T03:01:04.683Z,80.70
2022-07-30T03:03:33.022Z,81.30
2022-07-30T03:06:03.282Z,80.90
2022-07-30T03:08:33.813Z,81.30
2022-07-30T03:11:02.534Z,81.60
2022-07-30T03:13:30.515Z,81.40
2022-07-30T03:16:02.096Z,81.70
2022-07-30T03:18:35.125Z,81.30
2022-07-30T03:21:04.576Z,81.50
2022-07-30T03:23:36.572Z,81.50
2022-07-30T03:26:06.470Z,81.40
2022-07-30T03:28:37.777Z,81.70
2022-07-30T03:31:07.549Z,81.80
2022-07-30T03:33:38.632Z,81.90
2022-07-30T03:36:09.325Z,82.30
2022-07-30T03:38:39.020Z,83.00
2022-07-30T03:41:08.732Z,82.50
2022-07-30T03:43:37.134Z,82.40
2022-07-30T03:46:07.742Z,82.70
2022-07-30T03:48:36.583Z,82.60
2022-07-30T03:51:07.254Z,82.90
2022-07-30T03:53:35.301Z,83.10
2022-07-30T03:56:04.049Z,82.90
2022-07-30T03:58:35.839Z,83.00
2022-07-30T04:01:04.322Z,83.70
2022-07-30T04:03:34.724Z,83.90
2022-07-30T04:06:02.649Z,84.10
2022-07-30T04:08:31.076Z,83.80
2022-07-30T04:10:59.250Z,83.70
2022-07-30T04:13:27.152Z,83.50
2022-07-30T04:16:38.391Z,83.70
2022-07-30T04:18:55.698Z,83.90
2022-07-30T04:21:26.805Z,84.20
2022-07-30T04:24:04.622Z,84.30
2022-07-30T04:26:35.394Z,84.40
2022-07-30T04:29:05.942Z,84.30
2022-07-30T04:31:40.627Z,84.50
2022-07-30T04:34:14.802Z,84.50
2022-07-30T04:36:43.639Z,84.70
2022-07-30T04:39:12.022Z,85.30
2022-07-30T04:41:48.206Z,85.60
2022-07-30T04:44:18.373Z,86.00
2022-07-30T04:46:46.407Z,86.60
2022-07-30T04:49:17.982Z,86.90
2022-07-30T04:51:46.711Z,87.50
2022-07-30T04:54:16.286Z,88.20
2022-07-30T04:56:52.521Z,88.50
2022-07-30T04:59:24.589Z,89.10
2022-07-30T05:01:53.249Z,89.30
2022-07-30T05:04:24.838Z,90.00
2022-07-30T05:06:53.280Z,90.20
2022-07-30T05:09:21.761Z,90.50
2022-07-30T05:11:53.281Z,90.80
2022-07-30T05:14:21.741Z,91.10
2022-07-30T05:16:49.766Z,91.40
2022-07-30T05:19:18.750Z,91.40
2022-07-30T05:21:47.989Z,91.70
2022-07-30T05:24:16.113Z,91.50
2022-07-30T05:26:47.430Z,91.70
2022-07-30T05:29:19.710Z,91.90
2022-07-30T05:31:48.659Z,92.00
2022-07-30T05:34:16.609Z,91.90
2022-07-30T05:36:45.270Z,91.90
2022-07-30T05:39:16.161Z,91.70
2022-07-30T05:41:44.055Z,91.70
2022-07-30T05:44:11.954Z,91.70
2022-07-30T05:46:39.975Z,91.80
2022-07-30T05:49:08.232Z,91.70
2022-07-30T05:51:36.207Z,91.60
2022-07-30T05:54:04.429Z,91.60
2022-07-30T05:56:33.803Z,91.60
2022-07-30T05:59:01.737Z,91.60
2022-07-30T06:01:29.737Z,91.60
2022-07-30T06:03:57.674Z,91.50
2022-07-30T06:06:25.602Z,91.40
2022-07-30T06:08:53.600Z,91.40
2022-07-30T06:11:21.536Z,91.40
2022-07-30T06:13:50.719Z,91.40
2022-07-30T06:16:18.631Z,91.40
2022-07-30T06:18:46.530Z,91.40
2022-07-30T06:21:14.464Z,91.20
2022-07-30T06:23:42.353Z,91.30
2022-07-30T06:26:10.252Z,91.20
2022-07-30T06:28:39.244Z,91.20
2022-07-30T06:31:08.902Z,91.30
2022-07-30T06:33:36.870Z,91.30
2022-07-30T06:36:04.979Z,91.30
2022-07-30T06:38:32.883Z,91.30
2022-07-30T06:41:02.819Z,91.10
2022-07-30T06:43:32.495Z,91.20
2022-07-30T06:46:00.732Z,91.20
2022-07-30T06:48:31.693Z,91.20
2022-07-30T06:50:59.778Z,91.30
2022-07-30T06:53:27.666Z,91.30
2022-07-30T06:55:58.359Z,91.10
2022-07-30T06:58:29.152Z,91.10
2022-07-30T07:00:57.221Z,90.90
2022-07-30T07:03:26.170Z,90.90
2022-07-30T07:06:09.052Z,90.80
2022-07-30T07:08:37.544Z,90.70
2022-07-30T07:11:05.567Z,90.60
2022-07-30T07:13:33.509Z,90.60
2022-07-30T07:16:01.407Z,90.70
2022-07-30T07:18:29.382Z,90.20
2022-07-30T07:20:57.602Z,90.00
2022-07-30T07:23:42.057Z,89.90
2022-07-30T07:26:11.743Z,89.30
2022-07-30T07:28:40.793Z,89.40
2022-07-30T07:31:08.984Z,88.00
2022-07-30T07:33:37.063Z,87.40
2022-07-30T07:36:05.450Z,87.10
2022-07-30T07:38:34.998Z,87.30
2022-07-30T07:41:02.898Z,87.10
2022-07-30T07:43:30.851Z,87.10
2022-07-30T07:45:58.823Z,86.70
2022-07-30T07:48:26.775Z,86.50
2022-07-30T07:50:59.635Z,86.10
2022-07-30T07:53:28.488Z,85.30
2022-07-30T07:55:57.831Z,83.70
2022-07-30T07:58:26.412Z,84.10
2022-07-30T08:00:55.058Z,83.80
2022-07-30T08:03:23.015Z,84.20
2022-07-30T08:06:00.944Z,83.10
2022-07-30T08:08:36.440Z,82.80
2022-07-30T08:11:07.278Z,82.50
2022-07-30T08:13:48.440Z,81.80
2022-07-30T08:16:20.722Z,81.90
2022-07-30T08:18:48.696Z,81.70
2022-07-30T08:21:16.606Z,81.80
2022-07-30T08:23:44.512Z,81.50
2022-07-30T08:26:13.814Z,80.80
2022-07-30T08:28:43.050Z,80.60
2022-07-30T08:31:11.273Z,80.20
2022-07-30T08:33:39.161Z,79.50
2022-07-30T08:36:09.581Z,79.60
2022-07-30T08:38:38.124Z,79.10
2022-07-30T08:41:06.471Z,79.20
2022-07-30T08:43:37.138Z,80.60
2022-07-30T08:46:07.725Z,79.00
2022-07-30T08:48:36.826Z,79.00
2022-07-30T08:51:05.090Z,79.00
2022-07-30T08:53:34.643Z,78.90
2022-07-30T08:56:02.783Z,77.90
2022-07-30T08:58:32.358Z,78.10
2022-07-30T09:01:02.447Z,77.70
2022-07-30T09:03:30.460Z,77.30
2022-07-30T09:05:58.626Z,76.80
2022-07-30T09:08:26.765Z,78.40
2022-07-30T09:10:54.800Z,77.90
2022-07-30T09:13:27.590Z,75.80
2022-07-30T09:15:56.175Z,74.50
2022-07-30T09:18:36.525Z,74.30
2022-07-30T09:21:16.884Z,72.70
2022-07-30T09:23:57.499Z,72.30
2022-07-30T09:26:26.043Z,71.80
2022-07-30T09:28:54.278Z,71.60
2022-07-30T09:31:23.389Z,71.70
2022-07-30T09:33:52.802Z,70.70
2022-07-30T09:36:20.720Z,70.60
2022-07-30T09:38:51.494Z,70.40
2022-07-30T09:41:40.143Z,70.50
2022-07-30T09:44:08.290Z,71.30
2022-07-30T09:46:44.947Z,70.50
2022-07-30T09:49:18.697Z,70.70
2022-07-30T09:51:55.898Z,70.60
2022-07-30T09:54:26.549Z,69.80
2022-07-30T09:57:26.404Z,70.20
2022-07-30T09:59:56.952Z,70.90
2022-07-30T10:02:32.673Z,70.50
2022-07-30T10:05:14.289Z,70.00
2022-07-30T10:07:51.261Z,70.10
2022-07-30T10:10:21.736Z,70.20
2022-07-30T10:12:57.943Z,70.30
2022-07-30T10:15:29.499Z,70.30
2022-07-30T10:17:57.929Z,69.90
2022-07-30T10:20:28.580Z,69.50
2022-07-30T10:22:56.951Z,69.10
2022-07-30T10:25:27.897Z,69.30
2022-07-30T10:27:57.224Z,70.40
2022-07-30T10:30:28.263Z,68.70
2022-07-30T10:32:58.183Z,67.00
2022-07-30T10:35:34.758Z,67.10
2022-07-30T10:38:13.486Z,67.00
2022-07-30T10:40:48.646Z,67.00
2022-07-30T10:43:59.389Z,66.50
2022-07-30T10:46:40.925Z,66.60
2022-07-30T10:49:18.781Z,66.50
2022-07-30T10:51:50.449Z,65.90
2022-07-30T10:54:39.613Z,65.60
2022-07-30T10:57:15.184Z,64.80
2022-07-30T11:00:12.149Z,64.50
2022-07-30T11:03:14.832Z,64.60
2022-07-30T11:05:44.923Z,65.10
2022-07-30T11:08:36.195Z,65.00
2022-07-30T11:11:19.581Z,64.40
2022-07-30T11:13:56.181Z,64.60
2022-07-30T11:16:25.373Z,64.50
2022-07-30T11:19:53.290Z,64.40
2022-07-30T11:22:25.187Z,64.60
2022-07-30T11:24:54.203Z,63.10
2022-07-30T11:27:45.879Z,62.00
2022-07-30T11:30:35.201Z,61.90
2022-07-30T11:33:32.287Z,62.00
2022-07-30T11:36:10.634Z,61.70
2022-07-30T11:38:52.737Z,61.30
2022-07-30T11:41:20.773Z,60.90
2022-07-30T11:43:48.769Z,61.50
2022-07-30T11:46:28.835Z,61.90
2022-07-30T11:48:59.783Z,61.00
2022-07-30T11:51:31.427Z,61.90
2022-07-30T11:54:03.647Z,60.30
2022-07-30T11:56:32.298Z,59.40
2022-07-30T11:59:04.534Z,59.30
2022-07-30T12:01:33.449Z,59.10
2022-07-30T12:04:04.685Z,58.90
2022-07-30T12:06:36.374Z,59.10
2022-07-30T12:09:04.368Z,59.30
2022-07-30T12:11:33.381Z,59.00
2022-07-30T12:14:02.835Z,60.20
2022-07-30T12:16:35.951Z,58.90
2022-07-30T12:19:05.107Z,58.30
2022-07-30T12:21:34.735Z,58.50
2022-07-30T12:24:07.284Z,58.10
2022-07-30T12:26:36.197Z,58.20
2022-07-30T12:29:06.575Z,58.00
2022-07-30T12:31:39.876Z,57.50
2022-07-30T12:34:20.682Z,57.30
2022-07-30T12:36:50.100Z,56.90
2022-07-30T12:39:22.421Z,57.10
2022-07-30T12:41:51.758Z,57.00
2022-07-30T12:44:36.484Z,57.30
2022-07-30T12:47:05.671Z,57.50
2022-07-30T12:49:36.870Z,57.00
2022-07-30T12:52:27.543Z,56.60
2022-07-30T12:55:04.444Z,56.40
2022-07-30T12:57:54.973Z,56.20
2022-07-30T13:00:23.871Z,55.50
2022-07-30T13:02:51.903Z,56.10
2022-07-30T13:05:20.081Z,55.60
2022-07-30T13:07:57.696Z,55.40
2022-07-30T13:10:30.463Z,55.40
2022-07-30T13:12:59.391Z,55.10
2022-07-30T13:15:27.351Z,54.80
2022-07-30T13:17:55.270Z,54.90
2022-07-30T13:20:23.406Z,54.60
2022-07-30T13:22:51.294Z,54.40
2022-07-30T13:25:20.540Z,55.20
2022-07-30T13:27:48.841Z,54.30
2022-07-30T13:30:16.707Z,53.80
2022-07-30T13:32:44.586Z,53.80
2022-07-30T13:35:12.479Z,53.50
2022-07-30T13:37:40.338Z,53.60
2022-07-30T13:40:09.357Z,53.40
2022-07-30T13:42:38.589Z,53.40
2022-07-30T13:45:07.493Z,53.40
2022-07-30T13:47:35.658Z,53.10
2022-07-30T13:50:03.645Z,53.20
2022-07-30T13:52:31.559Z,53.20
2022-07-30T13:54:59.417Z,53.30
2022-07-30T13:57:27.366Z,53.10
2022-07-30T13:59:57.124Z,52.90
2022-07-30T14:02:24.981Z,53.00
2022-07-30T14:04:53.273Z,53.10
2022-07-30T14:07:21.179Z,52.70
2022-07-30T14:09:52.727Z,52.40
2022-07-30T14:12:22.415Z,52.40
2022-07-30T14:14:50.370Z,52.60
2022-07-30T14:17:19.704Z,53.30
2022-07-30T14:19:50.112Z,52.50
2022-07-30T14:22:18.209Z,51.90
2022-07-30T14:24:46.086Z,51.60
2022-07-30T14:27:14.075Z,51.80
2022-07-30T14:29:42.230Z,51.80
2022-07-30T14:32:10.152Z,51.70
2022-07-30T14:34:39.404Z,51.30
2022-07-30T14:37:07.307Z,51.10
2022-07-30T14:39:42.557Z,51.00
2022-07-30T14:42:10.863Z,51.00
2022-07-30T14:44:38.898Z,51.30
2022-07-30T14:47:07.809Z,50.60
2022-07-30T14:49:36.296Z,50.70
2022-07-30T14:52:06.023Z,50.60
2022-07-30T14:54:33.975Z,50.70
2022-07-30T14:57:02.096Z,50.60
2022-07-30T14:59:30.171Z,50.90
2022-07-30T15:01:58.181Z,50.90
2022-07-30T15:04:26.104Z,50.90
2022-07-30T15:06:54.014Z,50.60
2022-07-30T15:09:23.217Z,49.90
2022-07-30T15:12:07.671Z,49.90
2022-07-30T15:14:36.105Z,51.40
2022-07-30T15:17:04.747Z,51.30
2022-07-30T15:19:32.949Z,51.30
2022-07-30T15:22:02.694Z,50.90
2022-07-30T15:24:32.687Z,50.70
2022-07-30T15:27:01.322Z,51.60
2022-07-30T15:29:30.122Z,51.40
2022-07-30T15:32:00.014Z,51.50
2022-07-30T15:34:28.809Z,51.10
2022-07-30T15:36:56.676Z,50.60
2022-07-30T15:39:24.543Z,50.60
2022-07-30T15:41:58.054Z,50.80
2022-07-30T15:44:25.955Z,51.40
2022-07-30T15:46:53.824Z,50.80
2022-07-30T15:49:21.997Z,50.50
2022-07-30T15:51:50.098Z,50.60
2022-07-30T15:54:22.182Z,50.40
2022-07-30T15:56:51.630Z,50.30
2022-07-30T15:59:22.197Z,50.00
2022-07-30T16:01:51.026Z,49.70
2022-07-30T16:04:20.019Z,49.80
2022-07-30T16:06:48.354Z,49.70
2022-07-30T16:09:17.028Z,49.70
2022-07-30T16:11:44.936Z,49.70
2022-07-30T16:14:14.868Z,49.60
2022-07-30T16:16:44.155Z,49.50
2022-07-30T16:19:12.469Z,50.10
2022-07-30T16:21:40.322Z,49.30
2022-07-30T16:24:08.690Z,48.60
2022-07-30T16:26:37.215Z,48.80
2022-07-30T16:29:05.295Z,48.90
2022-07-30T16:31:33.221Z,48.50
2022-07-30T16:34:02.512Z,48.00
2022-07-30T16:36:30.343Z,47.60
2022-07-30T16:38:58.249Z,47.90
2022-07-30T16:41:26.070Z,48.10
2022-07-30T16:43:53.935Z,47.90
2022-07-30T16:46:21.864Z,48.10
2022-07-30T16:48:51.951Z,48.10
2022-07-30T16:51:21.342Z,47.40
2022-07-30T16:53:49.489Z,47.30
2022-07-30T16:56:17.950Z,47.30
2022-07-30T16:58:45.969Z,46.90
2022-07-30T17:01:14.244Z,46.40
2022-07-30T17:03:42.287Z,46.10
2022-07-30T17:06:10.161Z,46.10
2022-07-30T17:08:39.426Z,46.00
2022-07-30T17:11:09.365Z,45.90
2022-07-30T17:13:40.307Z,46.20
2022-07-30T17:16:08.313Z,46.30
2022-07-30T17:18:37.391Z,45.90
2022-07-30T17:21:05.451Z,46.30
2022-07-30T17:23:35.928Z,46.20
2022-07-30T17:26:05.224Z,46.00
2022-07-30T17:28:33.074Z,46.10
2022-07-30T17:31:00.932Z,46.20
2022-07-30T17:33:28.813Z,46.20
2022-07-30T17:35:56.761Z,46.60
2022-07-30T17:38:24.817Z,46.70
2022-07-30T17:40:52.726Z,46.80
2022-07-30T17:43:22.258Z,46.60
2022-07-30T17:45:50.184Z,46.50
2022-07-30T17:48:18.708Z,46.80
2022-07-30T17:50:46.730Z,46.70
2022-07-30T17:53:14.675Z,46.90
2022-07-30T17:55:57.887Z,47.30
2022-07-30T17:58:27.730Z,47.60
2022-07-30T18:00:57.206Z,48.10
2022-07-30T18:03:25.358Z,48.60
2022-07-30T18:05:53.643Z,48.70
2022-07-30T18:08:21.526Z,49.00
2022-07-30T18:10:50.069Z,49.40
2022-07-30T18:13:26.003Z,49.70
2022-07-30T18:15:56.242Z,50.30
2022-07-30T18:18:24.418Z,50.10
2022-07-30T18:20:52.329Z,50.40
2022-07-30T18:23:20.350Z,50.70
2022-07-30T18:25:51.890Z,50.90
2022-07-30T18:28:21.126Z,50.90
2022-07-30T18:30:48.997Z,51.10
2022-07-30T18:33:18.385Z,51.80
2022-07-30T18:35:46.394Z,52.30
2022-07-30T18:38:14.997Z,52.60
2022-07-30T18:40:42.876Z,53.00
2022-07-30T18:43:10.899Z,53.50
2022-07-30T18:45:38.758Z,53.70
2022-07-30T18:48:07.411Z,53.80
2022-07-30T18:50:36.654Z,54.10
2022-07-30T18:53:15.089Z,53.50
2022-07-30T18:55:44.196Z,53.40
2022-07-30T18:58:12.530Z,53.10
2022-07-30T19:00:43.167Z,53.00
2022-07-30T19:03:16.419Z,52.50
2022-07-30T19:05:48.048Z,52.60
2022-07-30T19:08:16.183Z,52.00
2022-07-30T19:10:44.116Z,51.70
2022-07-30T19:13:12.466Z,52.00
2022-07-30T19:15:40.355Z,52.20
2022-07-30T19:18:10.173Z,52.60
2022-07-30T19:20:38.135Z,52.60
2022-07-30T19:23:08.618Z,52.90
2022-07-30T19:25:39.138Z,53.00
2022-07-30T19:28:07.237Z,52.90
2022-07-30T19:30:35.678Z,53.00
2022-07-30T19:33:04.636Z,53.10
2022-07-30T19:35:32.719Z,52.90
2022-07-30T19:38:00.670Z,53.00
2022-07-30T19:40:30.258Z,53.20
2022-07-30T19:43:06.592Z,53.40
2022-07-30T19:45:47.510Z,53.60
2022-07-30T19:48:29.715Z,53.70
2022-07-30T19:51:01.504Z,54.00
2022-07-30T19:53:31.437Z,54.30
2022-07-30T19:56:10.463Z,54.80
2022-07-30T19:58:40.325Z,55.10
2022-07-30T20:01:08.894Z,55.60
2022-07-30T20:03:38.701Z,55.60
2022-07-30T20:06:07.564Z,55.40
2022-07-30T20:08:35.833Z,55.30
2022-07-30T20:11:07.234Z,55.60
2022-07-30T20:13:45.408Z,55.60
2022-07-30T20:16:14.661Z,55.80
2022-07-30T20:18:44.411Z,56.10
2022-07-30T20:21:15.474Z,56.90
2022-07-30T20:23:44.288Z,57.40
2022-07-30T20:26:15.025Z,57.70
2022-07-30T20:28:45.616Z,58.00
2022-07-30T20:31:13.859Z,58.20
2022-07-30T20:33:43.236Z,58.40
2022-07-30T20:36:18.296Z,59.00
2022-07-30T20:38:47.045Z,59.30
2022-07-30T20:41:16.950Z,59.50
2022-07-30T20:43:51.780Z,60.00
2022-07-30T20:46:22.931Z,60.20
2022-07-30T20:48:51.442Z,60.60
2022-07-30T20:51:19.461Z,61.00
2022-07-30T20:53:49.401Z,60.80
2022-07-30T20:56:20.002Z,60.60
2022-07-30T20:58:48.255Z,60.60
2022-07-30T21:01:17.690Z,60.80
2022-07-30T21:03:48.130Z,60.90
2022-07-30T21:06:17.112Z,61.00
2022-07-30T21:08:44.959Z,61.10
2022-07-30T21:11:13.371Z,61.30
2022-07-30T21:13:43.862Z,61.50
2022-07-30T21:16:15.677Z,61.50
2022-07-30T21:21:38.279Z,61.70
2022-07-30T21:24:18.805Z,61.90
2022-07-30T21:26:49.492Z,62.00
2022-07-30T21:29:19.778Z,62.20
2022-07-30T21:32:00.521Z,62.20
2022-07-30T21:37:19.958Z,62.90
2022-07-30T21:39:48.291Z,63.10
2022-07-30T21:42:16.206Z,63.50
2022-07-30T21:44:45.837Z,63.60
2022-07-30T21:47:14.122Z,63.80
2022-07-30T21:49:43.075Z,63.80
2022-07-30T21:52:12.946Z,64.10
2022-07-30T21:54:48.236Z,64.50
2022-07-30T21:57:23.234Z,64.10
2022-07-30T21:59:56.448Z,64.60
2022-07-30T22:02:24.815Z,64.60
2022-07-30T22:04:53.524Z,64.90
2022-07-30T22:07:22.217Z,65.10
2022-07-30T22:09:50.186Z,65.10
2022-07-30T22:12:18.753Z,64.90
2022-07-30T22:14:49.684Z,65.50
2022-07-30T22:17:23.353Z,65.70
2022-07-30T22:19:53.723Z,65.80
2022-07-30T22:22:27.131Z,65.80
2022-07-30T22:24:57.320Z,65.90
2022-07-30T22:27:56.319Z,66.10
2022-07-30T22:30:26.560Z,66.40
2022-07-30T22:32:56.324Z,66.40
2022-07-30T22:35:32.212Z,66.50
2022-07-30T22:38:02.531Z,66.70
2022-07-30T22:40:30.951Z,66.80
2022-07-30T22:42:58.879Z,67.10
2022-07-30T22:45:47.216Z,67.20
2022-07-30T22:48:25.293Z,67.30
2022-07-30T22:50:55.431Z,67.50
2022-07-30T22:54:10.708Z,67.70
2022-07-30T22:56:15.506Z,68.00
2022-07-30T22:58:44.279Z,67.90
2022-07-30T23:01:12.138Z,68.10
2022-07-30T23:03:42.160Z,68.10
2022-07-30T23:06:14.605Z,68.30
2022-07-30T23:08:44.228Z,68.50
2022-07-30T23:11:12.151Z,68.60
2022-07-30T23:12:27.491Z,62.70
2022-07-30T23:12:31.606Z,61.60
2022-07-30T23:13:40.395Z,68.90
2022-07-30T23:16:08.335Z,68.60
2022-07-30T23:18:36.536Z,69.20
2022-07-30T23:21:05.883Z,68.80
2022-07-30T23:23:35.540Z,68.70
2022-07-30T23:26:03.896Z,69.10
2022-07-30T23:28:31.859Z,69.10
2022-07-30T23:31:00.140Z,69.10
2022-07-30T23:33:28.423Z,69.10
2022-07-30T23:35:56.622Z,69.10
2022-07-30T23:38:26.038Z,69.60
2022-07-30T23:40:53.962Z,69.50
2022-07-30T23:43:21.884Z,69.50
2022-07-30T23:45:49.807Z,69.80
2022-07-30T23:48:17.674Z,69.90
2022-07-30T23:50:45.770Z,70.20
2022-07-30T23:53:13.671Z,70.20
2022-07-30T23:55:42.913Z,70.10
2022-07-30T23:58:10.757Z,70.40
